Flight Track Log - Related Links

Times and Time Zones

All times are in EDT time to prevent confusion due to time zone crossing. See the SWA3321 flight status page for this flight to view local times or setup timezone preferences in your user account.

Time Position Orientation Groundspeed Altitude Reporting Facility
EDT Latitude Longitude Course Direction KTS MPH feet Rate Location/Type
Sat 05:55:12 PM 39.6500 -86.3333 191° South 237 273 4,600  Level Indianapolis TRACON
Sat 05:56:23 PM 39.5719 -86.3247 175° South 278 320 8,500 3,182 Climbing Indianapolis Center
Sat 05:57:24 PM 39.4839 -86.3175 176° South 310 357 11,600 3,366 Climbing Indianapolis Center
Sat 05:58:26 PM 39.3892 -86.3081 176° South 336 387 15,400 3,532 Climbing Indianapolis Center
Sat 05:59:28 PM 39.2850 -86.2969 175° South 365 420 18,900 3,220 Climbing Indianapolis Center
Sat 06:00:29 PM 39.1564 -86.3069 183° South 384 442 22,000 2,488 Climbing Indianapolis Center
Sat 06:01:31 PM 39.0439 -86.2953 175° South 397 457 24,000 1,403 Climbing Indianapolis Center
Sat 06:02:33 PM 38.9194 -86.2769 173° South 434 499 24,900 1,548 Climbing Indianapolis Center
Sat 06:03:35 PM 38.7817 -86.2572 174° South 478 550 27,200 1,984 Climbing Indianapolis Center
Sat 06:04:37 PM 38.6436 -86.2378 174° South 489 563 29,000 878 Climbing Indianapolis Center
Sat 06:05:38 PM 38.5022 -86.2042 169° South 508 585 29,000 732 Level Indianapolis Center
Sat 06:06:40 PM 38.3653 -86.1497 163° South 509 586 30,500 1,597 Climbing Indianapolis Center
Sat 06:07:42 PM 38.2275 -86.0958 163° South 509 586 32,300 1,790 Climbing Indianapolis Center
Sat 06:08:44 PM 38.0886 -86.0425 163° South 512 589 34,200 1,902 Climbing Indianapolis Center
Sat 06:09:45 PM 37.9517 -85.9911 164° South 512 589 36,200 2,000 Climbing Indianapolis Center
Sat 06:10:47 PM 37.7867 -85.9269 163° South 512 589 38,300 1,887 Climbing Indianapolis Center
Sat 06:11:49 PM 37.6514 -85.8753 163° South 509 586 40,100 1,317 Climbing Indianapolis Center
Sat 06:12:50 PM 37.5167 -85.8267 164° South 503 579 41,000 439 Climbing Indianapolis Center
Sat 06:13:52 PM 37.3847 -85.7781 164° South 498 573 41,000  Level Indianapolis Center
Sat 06:14:54 PM 37.2594 -85.7289 163° South 490 564 41,000  Level Indianapolis Center
Sat 06:15:56 PM 37.1275 -85.6783 163° South 489 563 41,000  Level Indianapolis Center
Sat 06:16:57 PM 36.9953 -85.6300 164° South 489 563 41,000  Level Indianapolis Center
Sat 06:17:59 PM 36.8408 -85.5731 164° South 489 563 41,000  Level Indianapolis Center
Sat 06:19:01 PM 36.7131 -85.5264 164° South 488 562 41,000  Level Indianapolis Center
Sat 06:20:02 PM 36.5842 -85.4772 163° South 486 559 41,000  Level Indianapolis Center
Sat 06:21:04 PM 36.4547 -85.4294 163° South 486 559 41,000  Level Indianapolis Center
Sat 06:22:06 PM 36.3256 -85.3831 164° South 486 559 41,000  Level Indianapolis Center
Sat 06:23:07 PM 36.1964 -85.3364 164° South 486 559 41,000  Level Indianapolis Center
Sat 06:24:09 PM 36.0672 -85.2906 164° South 486 559 41,000  Level Indianapolis Center
Sat 06:25:11 PM 35.9125 -85.2347 164° South 486 559 41,000  Level Indianapolis Center
Sat 06:26:13 PM 35.7844 -85.1892 164° South 486 559 41,000  Level Indianapolis Center
Sat 06:27:12 PM 35.6508 -85.1453 165° South 488 562 41,000  Level Atlanta Center
Sat 06:28:12 PM 35.5219 -85.0953 162° South 488 562 41,000  Level Atlanta Center
Sat 06:29:12 PM 35.3928 -85.0503 164° South 488 562 41,000  Level Atlanta Center
Sat 06:30:12 PM 35.2639 -85.0053 164° South 488 562 41,000  Level Atlanta Center
Sat 06:31:12 PM 35.1389 -84.9608 164° South 482 555 41,000  Level Atlanta Center
Sat 06:32:12 PM 35.0100 -84.9136 163° South 482 555 41,000  Level Atlanta Center
Sat 06:33:12 PM 34.8808 -84.8717 165° South 476 548 41,000  Level Atlanta Center
Sat 06:34:12 PM 34.7558 -84.8275 164° South 476 548 41,000  Level Atlanta Center
Sat 06:35:12 PM 34.6353 -84.7811 162° South 476 548 41,000  Level Atlanta Center
Sat 06:36:12 PM 34.5061 -84.7369 164° South 468 539 41,000  Level Atlanta Center
Sat 06:37:12 PM 34.3789 -84.6933 164° South 468 539 41,000  Level Atlanta Center
Sat 06:38:12 PM 34.2519 -84.6494 164° South 474 545 41,000  Level Atlanta Center
Sat 06:39:12 PM 34.1289 -84.6058 164° South 469 540 41,000  Level Atlanta Center
Sat 06:40:12 PM 33.9956 -84.5650 166° South 479 551 41,000  Level Atlanta Center
Sat 06:41:12 PM 33.8706 -84.5192 163° South 473 544 41,000  Level Atlanta Center
Sat 06:42:12 PM 33.7497 -84.4786 164° South 466 536 41,000  Level Atlanta Center
Sat 06:43:12 PM 33.6183 -84.4406 166° South 466 536 41,000  Level Atlanta Center
Sat 06:44:12 PM 33.5036 -84.4350 178° South 474 545 41,000  Level Atlanta Center
Sat 06:45:12 PM 33.3742 -84.4294 178° South 469 540 41,000  Level Atlanta Center
Sat 06:46:12 PM 33.2447 -84.4289 180° South 464 534 41,000  Level Atlanta Center
Sat 06:47:12 PM 33.1131 -84.4258 179° South 464 534 41,000  Level Atlanta Center
Sat 06:48:12 PM 32.9839 -84.4228 179° South 464 534 41,000  Level Atlanta Center
Sat 06:49:12 PM 32.8522 -84.4222 180° South 469 540 41,000  Level Atlanta Center
Sat 06:50:12 PM 32.7103 -84.4142 177° South 469 540 41,000  Level Atlanta Center
Sat 06:51:12 PM 32.5789 -84.4161 181° South 474 545 41,000  Level Atlanta Center
Sat 06:52:12 PM 32.4494 -84.4131 179° South 474 545 41,000  Level Atlanta Center
Sat 06:53:12 PM 32.3181 -84.4100 179° South 474 545 41,000  Level Atlanta Center
Sat 06:55:15 PM 32.0594 -84.4050 179° South 461 531 41,000  Level Jacksonville Center
Sat 06:56:15 PM 31.9278 -84.4028 179° South 461 531 41,000  Level Jacksonville Center
Sat 06:57:15 PM 31.7983 -84.4008 179° South 461 531 41,000  Level Jacksonville Center
Sat 06:58:15 PM 31.6669 -84.3986 179° South 466 536 41,000  Level Jacksonville Center
Sat 06:59:15 PM 31.5333 -84.3964 179° South 473 544 41,000  Level Jacksonville Center
Sat 07:00:15 PM 31.4064 -84.3628 167° South 478 550 41,000  Level Jacksonville Center
Sat 07:01:15 PM 31.2794 -84.3267 166° South 478 550 41,000  Level Jacksonville Center
Sat 07:02:15 PM 31.1525 -84.2861 165° South 473 544 41,000  Level Jacksonville Center
Sat 07:03:15 PM 31.0131 -84.2453 166° South 473 544 41,000  Level Jacksonville Center
Sat 07:04:15 PM 30.8861 -84.2069 165° South 473 544 41,000  Level Jacksonville Center
Sat 07:05:15 PM 30.7611 -84.1689 165° South 473 544 41,000  Level Jacksonville Center
Sat 07:06:15 PM 30.6364 -84.1336 166° South 468 539 41,000  Level Jacksonville Center
Sat 07:07:15 PM 30.5156 -84.0983 166° South 463 533 41,000  Level Jacksonville Center
Sat 07:08:15 PM 30.3928 -84.0606 165° South 457 526 41,000  Level Jacksonville Center
Sat 07:09:15 PM 30.2697 -84.0253 166° South 457 526 41,000  Level Jacksonville Center
Sat 07:10:15 PM 30.1469 -83.9928 167° South 452 520 41,000 -350 Level Jacksonville Center
Sat 07:11:15 PM 30.0261 -83.9578 166° South 452 520 40,300 -850 Descending Jacksonville Center
Sat 07:12:15 PM 29.9053 -83.9206 165° South 452 520 39,300 -950 Descending Jacksonville Center
Sat 07:13:15 PM 29.7867 -83.8761 162° South 452 520 38,400 -950 Descending Jacksonville Center
Sat 07:14:15 PM 29.6767 -83.8058 151° Southeast 452 520 37,400 -1,550 Descending Jacksonville Center
Sat 07:15:15 PM 29.5644 -83.7331 151° Southeast 452 520 35,300 -2,300 Descending Jacksonville Center
Sat 07:16:15 PM 29.4519 -83.6606 151° Southeast 458 527 32,800 -2,650 Descending Jacksonville Center
Sat 07:17:15 PM 29.3356 -83.5881 151° Southeast 463 533 30,000 -2,800 Descending Jacksonville Center
Sat 07:18:15 PM 29.2233 -83.5136 150° Southeast 463 533 27,200 -2,550 Descending Jacksonville Center
Sat 07:19:15 PM 29.1047 -83.4392 151° Southeast 475 547 24,900 -2,200 Descending Jacksonville Center
Sat 07:20:15 PM 28.9900 -83.3650 151° Southeast 475 547 22,800 -1,650 Descending Jacksonville Center
Sat 07:21:15 PM 28.8858 -83.2981 151° Southeast 458 527 21,600 -1,050 Descending Jacksonville Center
Sat 07:22:15 PM 28.7819 -83.2314 151° Southeast 435 501 20,700 -1,754 Descending Jacksonville Center
Sat 07:24:06 PM 28.6108 -83.1208 150° Southeast 409 471 16,600 -2,442 Descending Miami Center
Sat 07:25:07 PM 28.5092 -83.0581 152° Southeast 393 452 13,700 -1,854 Descending Miami Center
Sat 07:26:09 PM 28.4217 -83.0022 151° Southeast 365 420 12,800 -1,561 Descending Miami Center
Sat 07:27:10 PM 28.3342 -82.9472 151° Southeast 361 415 10,500 -1,805 Descending Miami Center
Sat 07:28:12 PM 28.2728 -82.8844 138° Southeast 311 358 9,100 -1,707 Descending Miami Center
Sat 07:29:13 PM 28.2769 -82.7900 87° East 299 344 7,000 -1,476 Descending Miami Center
Sat 07:30:18 PM 28.2833 -82.6833 86° East 276 318 6,000 -672 Descending Tampa TRACON
Sat 07:31:18 PM 28.2833 -82.6000 90° East 249 287 5,600 -1,100 Descending Tampa TRACON
Sat 07:32:18 PM 28.2167 -82.5667 156° South 249 287 3,800 -1,400 Descending Tampa TRACON
Sat 07:33:18 PM 28.1500 -82.5333 156° South 239 275 2,800 -1,158 Descending Tampa TRACON
Sat 07:34:12 PM 28.1000 -82.5333 180° South 226 260 1,600 -842 Descending Tampa TRACON
Sat 07:35:12 PM 28.0500 -82.5333 180° South 151 174 1,200 -550 Descending Tampa TRACON
Sat 07:36:12 PM 28.0167 -82.5333 180° South 132 152 500 -700 Descending Tampa TRACON

Login

Don't have an account? Register now (free) for customized features, flight alerts, and more!